sensor_id;sensor_type;location;lat;lon;timestamp;pressure;altitude;pressure_sealevel;temperature;humidity
33454;BME280;39400;49.744;7.012;2023-06-14T00:01:47;95614.75;;;17.16;47.57
33454;BME280;39400;49.744;7.012;2023-06-14T00:04:13;95622.66;;;17.17;47.59
33454;BME280;39400;49.744;7.012;2023-06-14T00:06:39;95617.19;;;17.14;47.68
33454;BME280;39400;49.744;7.012;2023-06-14T00:09:05;95608.88;;;17.14;47.52
33454;BME280;39400;49.744;7.012;2023-06-14T00:11:31;95617.19;;;17.14;47.58
33454;BME280;39400;49.744;7.012;2023-06-14T00:13:57;95614.88;;;17.12;47.66
33454;BME280;39400;49.744;7.012;2023-06-14T00:16:23;95604.75;;;17.05;48.02
33454;BME280;39400;49.744;7.012;2023-06-14T00:18:48;95617.41;;;17.06;48.01
33454;BME280;39400;49.744;7.012;2023-06-14T00:21:14;95610.53;;;17.11;47.61
33454;BME280;39400;49.744;7.012;2023-06-14T00:23:39;95607.66;;;17.15;47.69
33454;BME280;39400;49.744;7.012;2023-06-14T00:26:04;95618.78;;;17.15;47.95
33454;BME280;39400;49.744;7.012;2023-06-14T00:28:30;95617.53;;;17.16;47.57
33454;BME280;39400;49.744;7.012;2023-06-14T00:30:55;95609.22;;;17.16;47.76
33454;BME280;39400;49.744;7.012;2023-06-14T00:33:20;95611.75;;;17.10;47.91
33454;BME280;39400;49.744;7.012;2023-06-14T00:35:46;95610.97;;;17.09;48.19
33454;BME280;39400;49.744;7.012;2023-06-14T00:38:11;95610.31;;;17.05;48.12
33454;BME280;39400;49.744;7.012;2023-06-14T00:40:37;95617.09;;;17.04;48.18
33454;BME280;39400;49.744;7.012;2023-06-14T00:43:02;95612.75;;;17.03;48.09
33454;BME280;39400;49.744;7.012;2023-06-14T00:45:27;95619.09;;;17.04;48.51
33454;BME280;39400;49.744;7.012;2023-06-14T00:47:53;95615.22;;;17.01;48.43
33454;BME280;39400;49.744;7.012;2023-06-14T00:50:20;95616.75;;;17.02;48.16
33454;BME280;39400;49.744;7.012;2023-06-14T00:52:45;95618.63;;;16.93;48.82
33454;BME280;39400;49.744;7.012;2023-06-14T00:55:11;95613.19;;;16.89;48.70
33454;BME280;39400;49.744;7.012;2023-06-14T00:57:36;95618.44;;;16.87;48.83
33454;BME280;39400;49.744;7.012;2023-06-14T01:00:01;95619.31;;;16.84;48.96
33454;BME280;39400;49.744;7.012;2023-06-14T01:02:27;95630.06;;;16.82;48.95
33454;BME280;39400;49.744;7.012;2023-06-14T01:04:52;95616.44;;;16.58;49.78
33454;BME280;39400;49.744;7.012;2023-06-14T01:07:28;95627.69;;;16.26;50.85
33454;BME280;39400;49.744;7.012;2023-06-14T01:12:50;95628.84;;;15.83;51.97
33454;BME280;39400;49.744;7.012;2023-06-14T01:15:20;95631.44;;;15.57;52.82
33454;BME280;39400;49.744;7.012;2023-06-14T01:17:46;95633.25;;;15.48;52.73
33454;BME280;39400;49.744;7.012;2023-06-14T01:20:14;95633.38;;;15.28;53.35
33454;BME280;39400;49.744;7.012;2023-06-14T01:22:55;95633.44;;;15.08;54.43
33454;BME280;39400;49.744;7.012;2023-06-14T01:25:21;95632.38;;;15.02;54.55
33454;BME280;39400;49.744;7.012;2023-06-14T01:27:49;95634.91;;;15.12;54.13
33454;BME280;39400;49.744;7.012;2023-06-14T01:30:16;95633.84;;;15.06;54.48
33454;BME280;39400;49.744;7.012;2023-06-14T01:32:42;95630.75;;;15.04;54.84
33454;BME280;39400;49.744;7.012;2023-06-14T01:35:07;95635.34;;;15.11;54.54
33454;BME280;39400;49.744;7.012;2023-06-14T01:37:33;95626.25;;;15.27;53.95
33454;BME280;39400;49.744;7.012;2023-06-14T01:40:01;95622.88;;;15.35;53.38
33454;BME280;39400;49.744;7.012;2023-06-14T01:42:27;95633.38;;;15.28;54.12
33454;BME280;39400;49.744;7.012;2023-06-14T01:44:53;95628.53;;;15.32;53.71
33454;BME280;39400;49.744;7.012;2023-06-14T01:47:19;95626.94;;;15.31;53.92
33454;BME280;39400;49.744;7.012;2023-06-14T01:49:46;95633.28;;;15.31;53.78
33454;BME280;39400;49.744;7.012;2023-06-14T01:52:11;95624.63;;;15.29;53.67
33454;BME280;39400;49.744;7.012;2023-06-14T01:54:36;95635.78;;;15.26;54.01
33454;BME280;39400;49.744;7.012;2023-06-14T01:57:02;95630.94;;;15.30;53.72
33454;BME280;39400;49.744;7.012;2023-06-14T01:59:27;95628.53;;;15.32;53.97
33454;BME280;39400;49.744;7.012;2023-06-14T02:01:53;95630.94;;;15.30;53.76
33454;BME280;39400;49.744;7.012;2023-06-14T02:04:18;95636.81;;;15.32;53.98
33454;BME280;39400;49.744;7.012;2023-06-14T02:06:43;95635.94;;;15.18;54.54
33454;BME280;39400;49.744;7.012;2023-06-14T02:09:09;95639.13;;;15.17;54.09
33454;BME280;39400;49.744;7.012;2023-06-14T02:11:34;95640.63;;;15.21;53.40
33454;BME280;39400;49.744;7.012;2023-06-14T02:13:59;95637.59;;;15.16;53.86
33454;BME280;39400;49.744;7.012;2023-06-14T02:16:24;95635.34;;;15.11;54.19
33454;BME280;39400;49.744;7.012;2023-06-14T02:18:50;95641.81;;;15.04;54.75
33454;BME280;39400;49.744;7.012;2023-06-14T02:21:16;95638.34;;;15.16;53.83
33454;BME280;39400;49.744;7.012;2023-06-14T02:23:41;95637.34;;;15.27;53.59
33454;BME280;39400;49.744;7.012;2023-06-14T02:26:06;95636.38;;;15.17;53.73
33454;BME280;39400;49.744;7.012;2023-06-14T02:28:33;95640.09;;;15.10;54.10
33454;BME280;39400;49.744;7.012;2023-06-14T02:30:59;95636.13;;;15.11;54.02
33454;BME280;39400;49.744;7.012;2023-06-14T02:33:24;95634.78;;;14.99;54.38
33454;BME280;39400;49.744;7.012;2023-06-14T02:35:49;95638.00;;;14.98;54.40
33454;BME280;39400;49.744;7.012;2023-06-14T02:38:15;95645.16;;;14.95;54.34
33454;BME280;39400;49.744;7.012;2023-06-14T02:40:40;95638.69;;;15.02;54.04
33454;BME280;39400;49.744;7.012;2023-06-14T02:43:05;95641.81;;;15.04;54.26
33454;BME280;39400;49.744;7.012;2023-06-14T02:45:31;95631.59;;;15.01;54.51
33454;BME280;39400;49.744;7.012;2023-06-14T02:47:56;95642.69;;;15.01;54.39
33454;BME280;39400;49.744;7.012;2023-06-14T02:50:22;95643.53;;;14.98;54.26
33454;BME280;39400;49.744;7.012;2023-06-14T02:52:47;95643.69;;;14.91;54.71
33454;BME280;39400;49.744;7.012;2023-06-14T02:55:12;95645.78;;;15.03;54.14
33454;BME280;39400;49.744;7.012;2023-06-14T02:57:38;95646.84;;;15.09;54.23
33454;BME280;39400;49.744;7.012;2023-06-14T03:00:04;95643.38;;;15.05;54.35
33454;BME280;39400;49.744;7.012;2023-06-14T03:02:32;95643.91;;;15.16;54.01
33454;BME280;39400;49.744;7.012;2023-06-14T03:04:57;95643.03;;;15.19;54.15
33454;BME280;39400;49.744;7.012;2023-06-14T03:07:23;95639.00;;;15.24;53.78
33454;BME280;39400;49.744;7.012;2023-06-14T03:09:50;95641.50;;;15.18;54.22
33454;BME280;39400;49.744;7.012;2023-06-14T03:12:17;95644.59;;;15.20;53.96
33454;BME280;39400;49.744;7.012;2023-06-14T03:14:42;95641.31;;;15.26;53.74
33454;BME280;39400;49.744;7.012;2023-06-14T03:17:08;95648.41;;;15.27;53.65
33454;BME280;39400;49.744;7.012;2023-06-14T03:19:36;95650.84;;;15.25;53.85
33454;BME280;39400;49.744;7.012;2023-06-14T03:22:03;95651.97;;;15.27;53.94
33454;BME280;39400;49.744;7.012;2023-06-14T03:24:30;95656.56;;;15.17;53.99
33454;BME280;39400;49.744;7.012;2023-06-14T03:26:57;95657.34;;;15.18;53.83
33454;BME280;39400;49.744;7.012;2023-06-14T03:29:23;95649.75;;;15.02;54.79
33454;BME280;39400;49.744;7.012;2023-06-14T03:32:00;95652.25;;;14.60;56.00
33454;BME280;39400;49.744;7.012;2023-06-14T03:34:33;95651.69;;;14.49;56.23
33454;BME280;39400;49.744;7.012;2023-06-14T03:36:59;95647.00;;;14.46;56.39
33454;BME280;39400;49.744;7.012;2023-06-14T03:39:24;95652.66;;;14.39;56.55
33454;BME280;39400;49.744;7.012;2023-06-14T03:41:50;95653.38;;;14.43;55.67
33454;BME280;39400;49.744;7.012;2023-06-14T03:44:16;95665.16;;;14.67;55.05
33454;BME280;39400;49.744;7.012;2023-06-14T03:46:42;95662.78;;;14.85;54.85
33454;BME280;39400;49.744;7.012;2023-06-14T03:49:07;95659.59;;;14.87;56.09
33454;BME280;39400;49.744;7.012;2023-06-14T03:51:33;95662.47;;;14.63;56.01
33454;BME280;39400;49.744;7.012;2023-06-14T03:53:58;95662.03;;;14.45;56.21
33454;BME280;39400;49.744;7.012;2023-06-14T03:56:23;95668.91;;;14.37;57.07
33454;BME280;39400;49.744;7.012;2023-06-14T03:58:49;95661.66;;;14.43;57.22
33454;BME280;39400;49.744;7.012;2023-06-14T04:01:15;95661.44;;;14.34;57.68
33454;BME280;39400;49.744;7.012;2023-06-14T04:03:40;95662.41;;;14.27;57.55
33454;BME280;39400;49.744;7.012;2023-06-14T04:06:06;95668.47;;;14.18;58.06
33454;BME280;39400;49.744;7.012;2023-06-14T04:08:31;95661.66;;;14.23;58.13
33454;BME280;39400;49.744;7.012;2023-06-14T04:10:57;95673.31;;;14.34;57.91
33454;BME280;39400;49.744;7.012;2023-06-14T04:13:23;95664.03;;;14.44;56.97
33454;BME280;39400;49.744;7.012;2023-06-14T04:15:48;95677.22;;;14.77;55.63
33454;BME280;39400;49.744;7.012;2023-06-14T04:18:19;95675.22;;;14.97;54.97
33454;BME280;39400;49.744;7.012;2023-06-14T04:20:45;95677.22;;;15.13;55.42
33454;BME280;39400;49.744;7.012;2023-06-14T04:23:15;95679.28;;;15.09;54.88
33454;BME280;39400;49.744;7.012;2023-06-14T04:25:41;95684.94;;;15.21;54.69
33454;BME280;39400;49.744;7.012;2023-06-14T04:28:06;95689.03;;;15.33;54.55
33454;BME280;39400;49.744;7.012;2023-06-14T04:30:32;95678.53;;;15.41;54.59
33454;BME280;39400;49.744;7.012;2023-06-14T04:32:57;95684.25;;;15.34;54.66
33454;BME280;39400;49.744;7.012;2023-06-14T04:35:22;95692.41;;;15.25;54.83
33454;BME280;39400;49.744;7.012;2023-06-14T04:37:48;95688.78;;;15.28;55.19
33454;BME280;39400;49.744;7.012;2023-06-14T04:40:13;95686.69;;;15.32;55.40
33454;BME280;39400;49.744;7.012;2023-06-14T04:42:39;95695.84;;;15.29;55.94
33454;BME280;39400;49.744;7.012;2023-06-14T04:45:07;95691.09;;;15.29;55.91
33454;BME280;39400;49.744;7.012;2023-06-14T04:47:33;95690.56;;;15.34;57.05
33454;BME280;39400;49.744;7.012;2023-06-14T04:49:58;95695.53;;;15.43;57.03
33454;BME280;39400;49.744;7.012;2023-06-14T04:52:23;95693.81;;;15.49;57.16
33454;BME280;39400;49.744;7.012;2023-06-14T04:54:49;95703.31;;;15.48;57.92
33454;BME280;39400;49.744;7.012;2023-06-14T04:57:17;95705.41;;;15.60;57.76
33454;BME280;39400;49.744;7.012;2023-06-14T04:59:45;95704.53;;;15.63;57.42
33454;BME280;39400;49.744;7.012;2023-06-14T05:02:11;95704.91;;;15.82;57.60
33454;BME280;39400;49.744;7.012;2023-06-14T05:04:36;95704.91;;;15.82;57.73
33454;BME280;39400;49.744;7.012;2023-06-14T05:07:02;95705.41;;;15.93;58.07
33454;BME280;39400;49.744;7.012;2023-06-14T05:09:45;95705.41;;;16.09;57.43
33454;BME280;39400;49.744;7.012;2023-06-14T05:12:30;95708.16;;;16.26;56.08
33454;BME280;39400;49.744;7.012;2023-06-14T05:15:04;95711.78;;;16.39;56.18
33454;BME280;39400;49.744;7.012;2023-06-14T05:17:30;95715.03;;;16.50;56.36
33454;BME280;39400;49.744;7.012;2023-06-14T05:19:56;95714.84;;;16.57;56.08
33454;BME280;39400;49.744;7.012;2023-06-14T05:22:22;95713.09;;;16.63;56.47
33454;BME280;39400;49.744;7.012;2023-06-14T05:24:47;95712.88;;;16.71;56.23
33454;BME280;39400;49.744;7.012;2023-06-14T05:27:12;95714.00;;;16.73;55.82
33454;BME280;39400;49.744;7.012;2023-06-14T05:29:38;95720.69;;;16.76;56.05
33454;BME280;39400;49.744;7.012;2023-06-14T05:32:03;95722.72;;;16.88;55.58
33454;BME280;39400;49.744;7.012;2023-06-14T05:34:29;95721.84;;;16.91;55.32
33454;BME280;39400;49.744;7.012;2023-06-14T05:36:54;95718.06;;;16.85;55.52
33454;BME280;39400;49.744;7.012;2023-06-14T05:39:19;95721.19;;;16.87;55.78
33454;BME280;39400;49.744;7.012;2023-06-14T05:41:44;95724.19;;;16.93;55.85
33454;BME280;39400;49.744;7.012;2023-06-14T05:44:10;95724.06;;;16.96;56.47
33454;BME280;39400;49.744;7.012;2023-06-14T05:46:35;95720.00;;;17.01;54.96
33454;BME280;39400;49.744;7.012;2023-06-14T05:49:00;95724.09;;;17.09;55.15
33454;BME280;39400;49.744;7.012;2023-06-14T05:51:26;95727.44;;;17.17;55.10
33454;BME280;39400;49.744;7.012;2023-06-14T05:53:51;95741.91;;;17.11;56.55
33454;BME280;39400;49.744;7.012;2023-06-14T05:56:17;95741.13;;;17.24;55.25
33454;BME280;39400;49.744;7.012;2023-06-14T05:58:43;95731.91;;;17.27;54.79
33454;BME280;39400;49.744;7.012;2023-06-14T06:01:09;95728.81;;;17.38;55.26
33454;BME280;39400;49.744;7.012;2023-06-14T06:03:34;95735.13;;;17.38;55.82
33454;BME280;39400;49.744;7.012;2023-06-14T06:06:00;95737.69;;;17.45;55.05
33454;BME280;39400;49.744;7.012;2023-06-14T06:08:28;95737.13;;;17.38;55.40
33454;BME280;39400;49.744;7.012;2023-06-14T06:10:54;95742.59;;;17.41;55.35
33454;BME280;39400;49.744;7.012;2023-06-14T06:13:19;95740.38;;;17.36;55.82
33454;BME280;39400;49.744;7.012;2023-06-14T06:15:44;95752.06;;;17.56;54.45
33454;BME280;39400;49.744;7.012;2023-06-14T06:18:10;95747.59;;;17.59;54.21
33454;BME280;39400;49.744;7.012;2023-06-14T06:20:35;95750.38;;;17.59;55.12
33454;BME280;39400;49.744;7.012;2023-06-14T06:23:00;95746.28;;;17.64;55.45
33454;BME280;39400;49.744;7.012;2023-06-14T06:25:26;95744.69;;;17.63;54.21
33454;BME280;39400;49.744;7.012;2023-06-14T06:27:52;95739.59;;;17.48;54.70
33454;BME280;39400;49.744;7.012;2023-06-14T06:30:19;95740.81;;;17.47;54.82
33454;BME280;39400;49.744;7.012;2023-06-14T06:32:44;95747.38;;;17.53;54.77
33454;BME280;39400;49.744;7.012;2023-06-14T06:35:10;95753.03;;;17.63;54.70
33454;BME280;39400;49.744;7.012;2023-06-14T06:37:35;95761.50;;;17.72;54.46
33454;BME280;39400;49.744;7.012;2023-06-14T06:40:00;95754.06;;;17.69;55.09
33454;BME280;39400;49.744;7.012;2023-06-14T06:42:25;95760.19;;;17.89;54.74
33454;BME280;39400;49.744;7.012;2023-06-14T06:44:51;95759.06;;;17.99;55.10
33454;BME280;39400;49.744;7.012;2023-06-14T06:47:17;95762.50;;;18.03;55.07
33454;BME280;39400;49.744;7.012;2023-06-14T06:49:42;95765.16;;;18.07;54.57
33454;BME280;39400;49.744;7.012;2023-06-14T06:52:08;95765.41;;;18.13;55.43
33454;BME280;39400;49.744;7.012;2023-06-14T06:54:33;95768.59;;;18.24;55.48
33454;BME280;39400;49.744;7.012;2023-06-14T06:56:59;95770.97;;;18.13;55.25
33454;BME280;39400;49.744;7.012;2023-06-14T06:59:24;95768.94;;;18.13;55.50
33454;BME280;39400;49.744;7.012;2023-06-14T07:01:50;95768.84;;;18.17;55.38
33454;BME280;39400;49.744;7.012;2023-06-14T07:04:15;95773.38;;;18.23;54.03
33454;BME280;39400;49.744;7.012;2023-06-14T07:06:42;95776.59;;;18.22;54.92
33454;BME280;39400;49.744;7.012;2023-06-14T07:09:07;95779.25;;;18.38;55.38
33454;BME280;39400;49.744;7.012;2023-06-14T07:11:32;95782.13;;;18.47;54.48
33454;BME280;39400;49.744;7.012;2023-06-14T07:13:58;95779.75;;;18.59;55.74
33454;BME280;39400;49.744;7.012;2023-06-14T07:16:23;95776.41;;;18.64;54.25
33454;BME280;39400;49.744;7.012;2023-06-14T07:18:48;95781.50;;;18.65;55.08
33454;BME280;39400;49.744;7.012;2023-06-14T07:21:14;95782.41;;;18.75;54.64
33454;BME280;39400;49.744;7.012;2023-06-14T07:23:39;95784.28;;;18.78;53.76
33454;BME280;39400;49.744;7.012;2023-06-14T07:26:04;95783.06;;;18.79;52.60
33454;BME280;39400;49.744;7.012;2023-06-14T07:28:29;95785.31;;;18.93;53.53
33454;BME280;39400;49.744;7.012;2023-06-14T07:30:55;95780.00;;;18.86;53.07
33454;BME280;39400;49.744;7.012;2023-06-14T07:33:20;95785.97;;;18.97;52.46
33454;BME280;39400;49.744;7.012;2023-06-14T07:35:45;95778.47;;;18.85;50.92
33454;BME280;39400;49.744;7.012;2023-06-14T07:38:11;95792.69;;;18.87;53.27
33454;BME280;39400;49.744;7.012;2023-06-14T07:40:36;95790.72;;;19.10;53.40
33454;BME280;39400;49.744;7.012;2023-06-14T07:43:01;95784.25;;;19.13;52.32
33454;BME280;39400;49.744;7.012;2023-06-14T07:45:27;95797.91;;;19.20;53.92
33454;BME280;39400;49.744;7.012;2023-06-14T07:47:52;95792.34;;;19.20;54.92
33454;BME280;39400;49.744;7.012;2023-06-14T07:50:17;95798.94;;;19.35;53.74
33454;BME280;39400;49.744;7.012;2023-06-14T07:52:44;95793.09;;;19.42;53.96
33454;BME280;39400;49.744;7.012;2023-06-14T07:55:10;95793.34;;;19.35;52.11
33454;BME280;39400;49.744;7.012;2023-06-14T07:57:35;95796.13;;;19.35;53.12
33454;BME280;39400;49.744;7.012;2023-06-14T08:00:01;95800.53;;;19.45;52.82
33454;BME280;39400;49.744;7.012;2023-06-14T08:02:26;95799.63;;;19.48;52.67
33454;BME280;39400;49.744;7.012;2023-06-14T08:04:51;95791.00;;;19.56;53.80
33454;BME280;39400;49.744;7.012;2023-06-14T08:07:16;95791.47;;;19.54;52.09
33454;BME280;39400;49.744;7.012;2023-06-14T08:09:42;95791.97;;;19.62;52.63
33454;BME280;39400;49.744;7.012;2023-06-14T08:12:07;95792.28;;;19.64;53.74
33454;BME280;39400;49.744;7.012;2023-06-14T08:14:33;95797.06;;;19.85;54.30
33454;BME280;39400;49.744;7.012;2023-06-14T08:16:59;95791.09;;;19.74;54.21
33454;BME280;39400;49.744;7.012;2023-06-14T08:19:24;95791.09;;;19.74;51.89
33454;BME280;39400;49.744;7.012;2023-06-14T08:21:50;95790.75;;;19.63;52.05
33454;BME280;39400;49.744;7.012;2023-06-14T08:24:15;95796.53;;;19.78;51.06
33454;BME280;39400;49.744;7.012;2023-06-14T08:26:40;95795.13;;;19.73;49.94
33454;BME280;39400;49.744;7.012;2023-06-14T08:29:06;95808.53;;;19.87;52.28
33454;BME280;39400;49.744;7.012;2023-06-14T08:31:31;95795.34;;;19.88;52.45
33454;BME280;39400;49.744;7.012;2023-06-14T08:33:56;95795.53;;;19.93;52.83
33454;BME280;39400;49.744;7.012;2023-06-14T08:36:21;95798.97;;;19.98;51.91
33454;BME280;39400;49.744;7.012;2023-06-14T08:38:47;95796.63;;;19.96;52.04
33454;BME280;39400;49.744;7.012;2023-06-14T08:41:20;95807.03;;;19.95;49.87
33454;BME280;39400;49.744;7.012;2023-06-14T08:43:46;95802.09;;;20.00;52.24
33454;BME280;39400;49.744;7.012;2023-06-14T08:46:12;95804.19;;;19.86;50.37
33454;BME280;39400;49.744;7.012;2023-06-14T08:48:39;95803.56;;;19.82;50.89
33454;BME280;39400;49.744;7.012;2023-06-14T08:51:04;95795.22;;;19.91;51.10
33454;BME280;39400;49.744;7.012;2023-06-14T08:53:33;95799.59;;;20.02;50.13
33454;BME280;39400;49.744;7.012;2023-06-14T08:56:00;95794.81;;;20.02;52.34
33454;BME280;39400;49.744;7.012;2023-06-14T08:58:25;95804.34;;;20.23;51.95
33454;BME280;39400;49.744;7.012;2023-06-14T09:00:51;95802.97;;;20.37;52.13
33454;BME280;39400;49.744;7.012;2023-06-14T09:03:16;95808.78;;;20.52;51.48
33454;BME280;39400;49.744;7.012;2023-06-14T09:05:41;95806.91;;;20.58;51.01
33454;BME280;39400;49.744;7.012;2023-06-14T09:08:07;95807.84;;;20.64;50.60
33454;BME280;39400;49.744;7.012;2023-06-14T09:10:32;95802.25;;;20.55;49.56
33454;BME280;39400;49.744;7.012;2023-06-14T09:12:57;95805.03;;;20.64;51.42
33454;BME280;39400;49.744;7.012;2023-06-14T09:15:23;95805.38;;;20.75;50.61
33454;BME280;39400;49.744;7.012;2023-06-14T09:17:48;95810.00;;;20.60;48.32
33454;BME280;39400;49.744;7.012;2023-06-14T09:20:13;95812.66;;;20.63;50.39
33454;BME280;39400;49.744;7.012;2023-06-14T09:22:39;95816.22;;;20.55;50.19
33454;BME280;39400;49.744;7.012;2023-06-14T09:25:05;95816.22;;;20.64;51.56
33454;BME280;39400;49.744;7.012;2023-06-14T09:27:32;95820.59;;;20.74;50.17
33454;BME280;39400;49.744;7.012;2023-06-14T09:29:57;95811.75;;;20.94;49.85
33454;BME280;39400;49.744;7.012;2023-06-14T09:32:23;95821.84;;;20.82;47.50
33454;BME280;39400;49.744;7.012;2023-06-14T09:34:48;95822.78;;;20.79;49.48
33454;BME280;39400;49.744;7.012;2023-06-14T09:37:27;95824.66;;;20.82;48.59
33454;BME280;39400;49.744;7.012;2023-06-14T09:39:52;95812.69;;;20.82;47.67
33454;BME280;39400;49.744;7.012;2023-06-14T09:42:18;95829.91;;;20.99;50.22
33454;BME280;39400;49.744;7.012;2023-06-14T09:44:48;95832.13;;;21.41;49.44
33454;BME280;39400;49.744;7.012;2023-06-14T09:47:15;95826.50;;;21.59;48.97
33454;BME280;39400;49.744;7.012;2023-06-14T09:49:42;95821.50;;;21.63;49.29
33454;BME280;39400;49.744;7.012;2023-06-14T09:52:10;95831.75;;;21.66;48.25
33454;BME280;39400;49.744;7.012;2023-06-14T09:54:39;95823.88;;;21.37;46.10
33454;BME280;39400;49.744;7.012;2023-06-14T09:57:05;95821.19;;;21.33;46.80
33454;BME280;39400;49.744;7.012;2023-06-14T09:59:32;95823.09;;;21.46;48.41
33454;BME280;39400;49.744;7.012;2023-06-14T10:01:58;95816.88;;;21.42;45.66
33454;BME280;39400;49.744;7.012;2023-06-14T10:04:25;95819.97;;;21.53;46.61
33454;BME280;39400;49.744;7.012;2023-06-14T10:06:52;95825.81;;;21.73;48.05
33454;BME280;39400;49.744;7.012;2023-06-14T10:09:18;95815.34;;;21.92;47.98
33454;BME280;39400;49.744;7.012;2023-06-14T10:11:45;95811.66;;;21.86;47.37
33454;BME280;39400;49.744;7.012;2023-06-14T10:14:12;95815.97;;;21.96;48.11
33454;BME280;39400;49.744;7.012;2023-06-14T10:19:46;95818.44;;;21.24;46.38
33454;BME280;39400;49.744;7.012;2023-06-14T10:22:18;95824.81;;;21.06;46.59
33454;BME280;39400;49.744;7.012;2023-06-14T10:24:44;95812.84;;;20.87;46.99
33454;BME280;39400;49.744;7.012;2023-06-14T10:27:13;95818.41;;;20.69;45.07
33454;BME280;39400;49.744;7.012;2023-06-14T10:32:20;95808.78;;;20.88;44.55
33454;BME280;39400;49.744;7.012;2023-06-14T10:34:57;95813.47;;;21.10;44.15
33454;BME280;39400;49.744;7.012;2023-06-14T10:37:22;95820.00;;;21.07;45.44
33454;BME280;39400;49.744;7.012;2023-06-14T10:39:48;95819.97;;;21.44;46.43
33454;BME280;39400;49.744;7.012;2023-06-14T10:42:14;95824.56;;;21.74;47.26
33454;BME280;39400;49.744;7.012;2023-06-14T10:44:40;95825.06;;;21.73;43.90
33454;BME280;39400;49.744;7.012;2023-06-14T10:47:08;95823.47;;;21.81;44.24
33454;BME280;39400;49.744;7.012;2023-06-14T10:49:42;95807.66;;;22.11;46.27
33454;BME280;39400;49.744;7.012;2023-06-14T10:52:15;95813.53;;;22.22;46.13
33454;BME280;39400;49.744;7.012;2023-06-14T10:55:16;95807.50;;;22.05;43.70
33454;BME280;39400;49.744;7.012;2023-06-14T10:57:42;95812.44;;;21.77;41.74
33454;BME280;39400;49.744;7.012;2023-06-14T11:00:08;95818.97;;;21.83;44.14
33454;BME280;39400;49.744;7.012;2023-06-14T11:05:50;95821.91;;;21.89;41.59
33454;BME280;39400;49.744;7.012;2023-06-14T11:11:21;95814.34;;;21.62;41.98
33454;BME280;39400;49.744;7.012;2023-06-14T11:13:47;95817.78;;;21.57;42.96
33454;BME280;39400;49.744;7.012;2023-06-14T11:16:13;95818.88;;;21.50;43.19
33454;BME280;39400;49.744;7.012;2023-06-14T11:18:39;95818.44;;;21.43;42.78
33454;BME280;39400;49.744;7.012;2023-06-14T11:21:05;95816.78;;;21.78;45.08
33454;BME280;39400;49.744;7.012;2023-06-14T11:26:39;95818.84;;;22.20;44.95
33454;BME280;39400;49.744;7.012;2023-06-14T11:29:05;95815.28;;;22.11;42.72
33454;BME280;39400;49.744;7.012;2023-06-14T11:31:30;95810.03;;;22.37;45.40
33454;BME280;39400;49.744;7.012;2023-06-14T11:33:57;95820.47;;;22.36;44.77
33454;BME280;39400;49.744;7.012;2023-06-14T11:36:25;95823.88;;;22.64;43.63
33454;BME280;39400;49.744;7.012;2023-06-14T11:38:58;95818.41;;;22.70;42.84
33454;BME280;39400;49.744;7.012;2023-06-14T11:41:24;95816.16;;;22.59;42.00
33454;BME280;39400;49.744;7.012;2023-06-14T11:43:52;95806.72;;;22.71;43.11
33454;BME280;39400;49.744;7.012;2023-06-14T11:46:18;95814.09;;;22.84;44.46
33454;BME280;39400;49.744;7.012;2023-06-14T11:48:43;95815.66;;;22.85;42.84
33454;BME280;39400;49.744;7.012;2023-06-14T11:51:09;95817.88;;;22.23;43.35
33454;BME280;39400;49.744;7.012;2023-06-14T11:53:34;95818.44;;;21.94;42.98
33454;BME280;39400;49.744;7.012;2023-06-14T11:56:00;95797.78;;;21.92;44.58
33454;BME280;39400;49.744;7.012;2023-06-14T11:58:26;95800.41;;;21.95;43.15
33454;BME280;39400;49.744;7.012;2023-06-14T12:00:52;95808.03;;;21.85;43.30
33454;BME280;39400;49.744;7.012;2023-06-14T12:03:23;95808.03;;;21.85;43.30
33454;BME280;39400;49.744;7.012;2023-06-14T12:05:48;95812.34;;;22.05;42.99
33454;BME280;39400;49.744;7.012;2023-06-14T12:08:13;95815.81;;;22.00;43.27
33454;BME280;39400;49.744;7.012;2023-06-14T12:10:40;95820.66;;;22.33;43.23
33454;BME280;39400;49.744;7.012;2023-06-14T12:13:05;95816.22;;;22.41;41.23
33454;BME280;39400;49.744;7.012;2023-06-14T12:15:31;95806.91;;;22.01;41.95
33454;BME280;39400;49.744;7.012;2023-06-14T12:17:57;95817.97;;;21.96;43.06
33454;BME280;39400;49.744;7.012;2023-06-14T12:20:22;95812.31;;;22.14;41.79
33454;BME280;39400;49.744;7.012;2023-06-14T12:22:58;95811.88;;;22.40;44.92
33454;BME280;39400;49.744;7.012;2023-06-14T12:25:35;95820.19;;;22.58;44.80
33454;BME280;39400;49.744;7.012;2023-06-14T12:28:08;95810.41;;;22.77;42.97
33454;BME280;39400;49.744;7.012;2023-06-14T12:30:37;95815.38;;;22.25;42.41
33454;BME280;39400;49.744;7.012;2023-06-14T12:33:05;95810.97;;;22.34;42.69
33454;BME280;39400;49.744;7.012;2023-06-14T12:35:30;95811.09;;;22.72;43.79
33454;BME280;39400;49.744;7.012;2023-06-14T12:37:56;95809.09;;;22.40;43.46
33454;BME280;39400;49.744;7.012;2023-06-14T12:40:21;95813.97;;;22.54;42.66
33454;BME280;39400;49.744;7.012;2023-06-14T12:42:47;95810.44;;;22.44;41.78
33454;BME280;39400;49.744;7.012;2023-06-14T12:45:12;95816.41;;;22.37;41.29
33454;BME280;39400;49.744;7.012;2023-06-14T12:47:37;95821.66;;;22.11;41.88
33454;BME280;39400;49.744;7.012;2023-06-14T12:50:03;95812.81;;;22.03;43.07
33454;BME280;39400;49.744;7.012;2023-06-14T12:52:28;95818.50;;;22.27;43.46
33454;BME280;39400;49.744;7.012;2023-06-14T12:54:53;95807.66;;;22.20;42.09
33454;BME280;39400;49.744;7.012;2023-06-14T12:57:19;95821.00;;;22.25;42.34
33454;BME280;39400;49.744;7.012;2023-06-14T12:59:44;95820.91;;;22.68;43.82
33454;BME280;39400;49.744;7.012;2023-06-14T13:02:13;95819.00;;;22.50;42.11
33454;BME280;39400;49.744;7.012;2023-06-14T13:04:38;95820.09;;;22.76;43.17
33454;BME280;39400;49.744;7.012;2023-06-14T13:07:04;95811.91;;;22.64;40.85
33454;BME280;39400;49.744;7.012;2023-06-14T13:09:29;95829.66;;;22.61;41.54
33454;BME280;39400;49.744;7.012;2023-06-14T13:11:54;95830.38;;;22.46;40.65
33454;BME280;39400;49.744;7.012;2023-06-14T13:14:20;95831.69;;;22.36;40.85